Time;durP1;ratioP1;P1;durP2;ratioP2;P2;SDS_P1;SDS_P2;PMS_P1;PMS_P2;Temp;Humidity;BMP_temperature;BMP_pressure;BME280_temperature;BME280_humidity;BME280_pressure;Samples;Min_cycle;Max_cycle;Signal;HPM_P1;HPM_P2
2023/08/27 00:02:03;;;;;;;;;;;;;;;23.77;100.00;98846.25;4951391;29;19972;-77
2023/08/27 00:04:29;;;;;;;;;;;;;;;23.81;100.00;98840.09;4950805;29;19995;-76
2023/08/27 00:06:54;;;;;;;;;;;;;;;23.86;100.00;98842.88;4951737;29;19947;-78
2023/08/27 00:09:19;;;;;;;;;;;;;;;23.88;100.00;98856.94;4952044;29;20061;-78
2023/08/27 00:11:45;;;;;;;;;;;;;;;23.78;100.00;98854.09;4951738;28;19922;-77
2023/08/27 00:14:10;;;;;;;;;;;;;;;23.87;100.00;98873.34;4951219;29;19922;-77
2023/08/27 00:16:36;;;;;;;;;;;;;;;23.74;100.00;98869.09;4958211;28;19923;-77
2023/08/27 00:19:03;;;;;;;;;;;;;;;23.78;100.00;98850.56;4951297;29;19926;-77
2023/08/27 00:21:28;;;;;;;;;;;;;;;23.82;100.00;98847.13;4951817;29;20010;-78
2023/08/27 00:23:53;;;;;;;;;;;;;;;23.89;100.00;98839.72;4951455;29;20009;-77
2023/08/27 00:26:18;;;;;;;;;;;;;;;23.91;100.00;98834.91;4951764;29;19961;-78
2023/08/27 00:28:44;;;;;;;;;;;;;;;23.94;100.00;98829.00;4951152;28;20018;-78
2023/08/27 00:31:09;;;;;;;;;;;;;;;23.96;100.00;98808.03;4880653;28;2045918;-78
2023/08/27 00:33:35;;;;;;;;;;;;;;;24.00;100.00;98809.16;4952376;29;19961;-77
2023/08/27 00:36:00;;;;;;;;;;;;;;;23.99;100.00;98798.63;4958854;28;19922;-78
2023/08/27 00:38:25;;;;;;;;;;;;;;;23.99;100.00;98798.63;4952533;29;20377;-79
2023/08/27 00:40:51;;;;;;;;;;;;;;;24.03;100.00;98816.72;4951974;29;20450;-78
2023/08/27 00:43:16;;;;;;;;;;;;;;;24.04;100.00;98812.16;4951117;29;19993;-79
2023/08/27 00:45:42;;;;;;;;;;;;;;;23.98;100.00;98797.78;4952037;29;19949;-78
2023/08/27 00:48:07;;;;;;;;;;;;;;;23.93;100.00;98800.41;4950316;29;19923;-78
2023/08/27 00:50:33;;;;;;;;;;;;;;;23.94;100.00;98807.44;4950981;29;19922;-78
2023/08/27 00:52:58;;;;;;;;;;;;;;;23.97;100.00;98796.19;4958761;28;20017;-77
2023/08/27 00:55:24;;;;;;;;;;;;;;;23.98;100.00;98786.19;4950983;29;20056;-77
2023/08/27 00:57:50;;;;;;;;;;;;;;;23.95;100.00;98784.84;4950138;29;19922;-77
2023/08/27 01:00:16;;;;;;;;;;;;;;;23.85;100.00;98776.59;4955908;28;19942;-77
2023/08/27 01:02:43;;;;;;;;;;;;;;;23.80;100.00;98775.72;4932128;29;19993;-77
2023/08/27 01:05:09;;;;;;;;;;;;;;;23.77;100.00;98768.94;4957878;28;19973;-77
2023/08/27 01:07:41;;;;;;;;;;;;;;;23.78;100.00;98792.13;4943223;29;20010;-76
2023/08/27 01:10:13;;;;;;;;;;;;;;;23.66;100.00;98783.31;4958996;28;19927;-78
2023/08/27 01:12:55;;;;;;;;;;;;;;;23.68;100.00;98781.16;4952287;29;19922;-78
2023/08/27 01:15:21;;;;;;;;;;;;;;;23.57;100.00;98774.00;4952349;28;20298;-78
2023/08/27 01:17:47;;;;;;;;;;;;;;;23.54;100.00;98761.03;4951558;29;19922;-78
2023/08/27 01:20:14;;;;;;;;;;;;;;;23.55;100.00;98749.22;4958622;28;20442;-78
2023/08/27 01:22:41;;;;;;;;;;;;;;;23.52;100.00;98749.69;4943960;29;19997;-77
2023/08/27 01:25:07;;;;;;;;;;;;;;;23.48;100.00;98754.75;4955650;29;20379;-78
2023/08/27 01:27:50;;;;;;;;;;;;;;;23.47;100.00;98752.31;4955776;29;19923;-78
2023/08/27 01:30:35;;;;;;;;;;;;;;;23.50;100.00;98749.13;4962199;28;20276;-78
2023/08/27 01:33:08;;;;;;;;;;;;;;;23.56;100.00;98737.38;4953564;29;20013;-78
2023/08/27 01:35:34;;;;;;;;;;;;;;;23.57;100.00;98728.22;4962083;28;19930;-78
2023/08/27 01:37:59;;;;;;;;;;;;;;;23.58;100.00;98737.94;4953699;29;19923;-78
2023/08/27 01:40:25;;;;;;;;;;;;;;;23.61;100.00;98724.00;4962298;28;19985;-78
2023/08/27 01:42:50;;;;;;;;;;;;;;;23.67;100.00;98723.00;4952747;29;20068;-78
2023/08/27 01:45:17;;;;;;;;;;;;;;;23.69;100.00;98728.94;4955144;29;20407;-77
2023/08/27 01:47:42;;;;;;;;;;;;;;;23.54;100.00;98723.34;4954029;28;19922;-77
2023/08/27 01:50:08;;;;;;;;;;;;;;;23.54;100.00;98731.41;4953135;29;19937;-78
2023/08/27 01:52:35;;;;;;;;;;;;;;;23.50;100.00;98706.84;4950864;29;19922;-77
2023/08/27 01:55:01;;;;;;;;;;;;;;;23.56;100.00;98702.38;4953218;29;20020;-78
2023/08/27 01:57:26;;;;;;;;;;;;;;;23.56;100.00;98697.78;4954818;29;19962;-78
2023/08/27 01:59:52;;;;;;;;;;;;;;;23.60;100.00;98684.66;4955710;28;19929;-78
2023/08/27 02:02:17;;;;;;;;;;;;;;;23.59;100.00;98696.47;4961216;28;20466;-78
2023/08/27 02:04:43;;;;;;;;;;;;;;;23.49;100.00;98690.97;4961650;28;20335;-78
2023/08/27 02:07:08;;;;;;;;;;;;;;;23.58;100.00;98694.84;4953354;29;19950;-78
2023/08/27 02:09:34;;;;;;;;;;;;;;;23.61;100.00;98699.75;4954943;29;20360;-77
2023/08/27 02:12:00;;;;;;;;;;;;;;;23.67;100.00;98704.16;4954725;29;19930;-78
2023/08/27 02:14:25;;;;;;;;;;;;;;;23.69;100.00;98702.00;4953614;29;19923;-77
2023/08/27 02:16:51;;;;;;;;;;;;;;;23.70;100.00;98709.03;4952881;29;19933;-77
2023/08/27 02:19:16;;;;;;;;;;;;;;;23.59;100.00;98712.63;4960896;28;19926;-77
2023/08/27 02:21:42;;;;;;;;;;;;;;;23.62;100.00;98717.53;4953235;29;19929;-77
2023/08/27 02:24:07;;;;;;;;;;;;;;;23.60;100.00;98730.44;4961112;28;19938;-78
2023/08/27 02:26:33;;;;;;;;;;;;;;;23.60;100.00;98739.34;4953321;29;19923;-78
2023/08/27 02:28:58;;;;;;;;;;;;;;;23.61;100.00;98732.06;4954378;28;20376;-78
2023/08/27 02:31:23;;;;;;;;;;;;;;;23.58;100.00;98743.31;4931620;29;19959;-78
2023/08/27 02:33:49;;;;;;;;;;;;;;;23.58;100.00;98740.63;4925989;29;19927;-78
2023/08/27 02:36:15;;;;;;;;;;;;;;;23.61;100.00;98748.22;4918061;29;20009;-78
2023/08/27 02:38:41;;;;;;;;;;;;;;;23.59;100.00;98745.78;4935464;29;19929;-78
2023/08/27 02:41:06;;;;;;;;;;;;;;;23.51;100.00;98713.03;4935049;29;19926;-78
2023/08/27 02:43:31;;;;;;;;;;;;;;;23.54;100.00;98699.91;4935550;29;19927;-78
2023/08/27 02:45:57;;;;;;;;;;;;;;;23.62;100.00;98702.19;4917766;29;19958;-78
2023/08/27 02:48:22;;;;;;;;;;;;;;;23.67;100.00;98698.75;4933636;29;20439;-78
2023/08/27 02:50:47;;;;;;;;;;;;;;;23.75;100.00;98717.16;4917383;29;20388;-78
2023/08/27 02:53:13;;;;;;;;;;;;;;;23.74;100.00;98715.53;4934852;29;19923;-78
2023/08/27 02:55:38;;;;;;;;;;;;;;;23.81;100.00;98710.78;4917782;29;19923;-78
2023/08/27 02:58:03;;;;;;;;;;;;;;;23.75;100.00;98717.16;4934686;29;19956;-78
2023/08/27 03:00:30;;;;;;;;;;;;;;;23.70;100.00;98725.19;4918950;29;19922;-78
2023/08/27 03:02:56;;;;;;;;;;;;;;;23.71;100.00;98710.66;4917393;29;19923;-79
2023/08/27 03:05:22;;;;;;;;;;;;;;;23.73;100.00;98708.53;4934582;29;19927;-78
2023/08/27 03:07:47;;;;;;;;;;;;;;;23.68;100.00;98701.19;4934372;29;20348;-79
2023/08/27 03:10:13;;;;;;;;;;;;;;;23.74;100.00;98696.69;4934629;29;19923;-79
2023/08/27 03:12:38;;;;;;;;;;;;;;;23.69;100.00;98664.28;4934797;29;20041;-78
2023/08/27 03:15:04;;;;;;;;;;;;;;;23.72;100.00;98663.81;4917175;29;19973;-77
2023/08/27 03:17:29;;;;;;;;;;;;;;;23.71;100.00;98688.28;4917296;29;20017;-78
2023/08/27 03:19:54;;;;;;;;;;;;;;;23.50;100.00;98671.84;4916941;29;20343;-79
2023/08/27 03:22:20;;;;;;;;;;;;;;;23.52;100.00;98666.22;4916965;29;19922;-79
2023/08/27 03:24:46;;;;;;;;;;;;;;;23.54;100.00;98678.38;4916995;29;20372;-78
2023/08/27 03:27:12;;;;;;;;;;;;;;;23.43;100.00;98673.06;4925216;29;19927;-78
2023/08/27 03:29:37;;;;;;;;;;;;;;;23.36;100.00;98675.91;4941478;28;19929;-78
2023/08/27 03:32:02;;;;;;;;;;;;;;;23.27;100.00;98682.75;4951699;29;19931;-78
2023/08/27 03:34:28;;;;;;;;;;;;;;;23.24;100.00;98659.03;4987026;23;20406;-74
2023/08/27 03:36:53;;;;;;;;;;;;;;;23.15;100.00;98664.00;4947578;29;19948;-74
2023/08/27 03:39:18;;;;;;;;;;;;;;;23.23;100.00;98660.91;4951808;29;19923;-74
2023/08/27 03:41:45;;;;;;;;;;;;;;;23.20;100.00;98661.44;4952034;29;19926;-74
2023/08/27 03:44:11;;;;;;;;;;;;;;;23.15;100.00;98637.09;4951905;29;19926;-74
2023/08/27 03:46:36;;;;;;;;;;;;;;;23.14;100.00;98640.06;4951678;28;19929;-74
2023/08/27 03:49:02;;;;;;;;;;;;;;;23.15;100.00;98652.47;4951426;29;20269;-73
2023/08/27 03:51:28;;;;;;;;;;;;;;;23.14;100.00;98640.88;4951884;29;19940;-74
2023/08/27 03:53:57;;;;;;;;;;;;;;;23.15;100.00;98629.03;4951209;29;19933;-73
2023/08/27 03:56:23;;;;;;;;;;;;;;;23.14;100.00;98634.69;4952980;28;19923;-75
2023/08/27 03:58:48;;;;;;;;;;;;;;;23.12;100.00;98639.47;4951436;29;19993;-75
2023/08/27 04:01:14;;;;;;;;;;;;;;;22.92;100.00;98631.88;4951879;29;19926;-74
2023/08/27 04:03:39;;;;;;;;;;;;;;;22.94;100.00;98635.16;4952981;28;19929;-73
2023/08/27 04:06:06;;;;;;;;;;;;;;;22.95;100.00;98636.78;4951438;29;19930;-75
2023/08/27 04:08:31;;;;;;;;;;;;;;;22.92;100.00;98631.88;4952759;28;19952;-73
2023/08/27 04:10:57;;;;;;;;;;;;;;;22.93;100.00;98654.22;4952419;28;20053;-74
2023/08/27 04:13:22;;;;;;;;;;;;;;;22.86;100.00;98641.75;4951558;29;19969;-75
2023/08/27 04:15:58;;;;;;;;;;;;;;;22.90;100.00;98687.00;4951282;29;19929;-74
2023/08/27 04:18:23;;;;;;;;;;;;;;;22.88;100.00;98668.41;4948723;29;19930;-75
2023/08/27 04:20:49;;;;;;;;;;;;;;;22.92;100.00;98664.16;4951179;29;19922;-73
2023/08/27 04:23:15;;;;;;;;;;;;;;;22.89;100.00;98688.06;4951226;29;20009;-73
2023/08/27 04:25:42;;;;;;;;;;;;;;;22.85;100.00;98691.22;4951122;29;20016;-73
2023/08/27 04:28:08;;;;;;;;;;;;;;;22.93;100.00;98689.19;4950930;29;19922;-73
2023/08/27 04:30:33;;;;;;;;;;;;;;;22.94;100.00;98682.75;4952764;28;19934;-74
2023/08/27 04:32:58;;;;;;;;;;;;;;;22.97;100.00;98664.28;4934920;29;19923;-73
2023/08/27 04:35:24;;;;;;;;;;;;;;;23.02;100.00;98683.19;4944378;29;19934;-74
2023/08/27 04:37:49;;;;;;;;;;;;;;;23.03;100.00;98665.19;4924542;29;19930;-73
2023/08/27 04:40:15;;;;;;;;;;;;;;;23.05;100.00;98642.34;4925956;29;19922;-73
2023/08/27 04:42:41;;;;;;;;;;;;;;;23.07;100.00;98656.38;4925870;29;20375;-74
2023/08/27 04:45:08;;;;;;;;;;;;;;;23.04;100.00;98651.47;4941990;29;19974;-75
2023/08/27 04:47:33;;;;;;;;;;;;;;;23.05;100.00;98636.94;4944098;29;20017;-73
2023/08/27 04:49:59;;;;;;;;;;;;;;;23.09;100.00;98648.84;4923615;29;19977;-73
2023/08/27 04:52:24;;;;;;;;;;;;;;;23.11;100.00;98652.13;4944523;29;19933;-74
2023/08/27 04:54:50;;;;;;;;;;;;;;;23.08;100.00;98641.84;4941157;29;20368;-74
2023/08/27 04:57:16;;;;;;;;;;;;;;;23.08;100.00;98643.72;4943646;28;20380;-75
2023/08/27 04:59:41;;;;;;;;;;;;;;;23.02;100.00;98642.84;4929533;29;19934;-72
2023/08/27 05:02:07;;;;;;;;;;;;;;;23.05;100.00;98646.91;4928518;29;20026;-74
2023/08/27 05:04:32;;;;;;;;;;;;;;;23.05;100.00;98636.94;4930248;29;19926;-75
2023/08/27 05:06:58;;;;;;;;;;;;;;;23.05;100.00;98615.41;4944770;29;19923;-73
2023/08/27 05:09:25;;;;;;;;;;;;;;;23.06;100.00;98611.69;4930951;29;19945;-73
2023/08/27 05:11:50;;;;;;;;;;;;;;;23.04;100.00;98608.41;4927465;29;19969;-74
2023/08/27 05:14:15;;;;;;;;;;;;;;;23.05;100.00;98612.72;4929596;29;19950;-75
2023/08/27 05:16:41;;;;;;;;;;;;;;;23.06;100.00;98619.75;4929187;29;19923;-76
2023/08/27 05:19:06;;;;;;;;;;;;;;;23.07;100.00;98629.47;4928006;29;19923;-76
2023/08/27 05:21:31;;;;;;;;;;;;;;;23.00;100.00;98642.25;4930527;29;20376;-74
2023/08/27 05:23:57;;;;;;;;;;;;;;;22.88;100.00;98646.06;4927321;29;19923;-74
2023/08/27 05:26:22;;;;;;;;;;;;;;;22.93;100.00;98643.47;4930323;29;19923;-75
2023/08/27 05:28:47;;;;;;;;;;;;;;;22.87;100.00;98639.88;4927783;29;20012;-74
2023/08/27 05:31:13;;;;;;;;;;;;;;;22.90;100.00;98650.16;4929224;29;19923;-75
2023/08/27 05:33:39;;;;;;;;;;;;;;;22.90;100.00;98649.34;4933264;29;20303;-75
2023/08/27 05:36:04;;;;;;;;;;;;;;;22.95;100.00;98647.56;4954107;29;19933;-75
2023/08/27 05:38:29;;;;;;;;;;;;;;;22.92;100.00;98642.66;4955686;29;20450;-75
2023/08/27 05:40:55;;;;;;;;;;;;;;;23.00;100.00;98639.56;4955277;28;19928;-75
2023/08/27 05:43:20;;;;;;;;;;;;;;;22.80;100.00;98639.22;4953820;29;19922;-75
2023/08/27 05:45:46;;;;;;;;;;;;;;;22.68;100.00;98635.78;4955082;29;19922;-74
2023/08/27 05:48:14;;;;;;;;;;;;;;;22.62;100.00;98642.91;4954110;29;20014;-75
2023/08/27 05:50:40;;;;;;;;;;;;;;;22.65;100.00;98644.31;4953874;29;20013;-74
2023/08/27 05:53:05;;;;;;;;;;;;;;;22.78;100.00;98641.34;4955106;28;20037;-74
2023/08/27 05:55:31;;;;;;;;;;;;;;;22.92;100.00;98634.56;4954074;29;19937;-74
2023/08/27 05:58:00;;;;;;;;;;;;;;;23.06;100.00;98633.19;4953399;29;19958;-75
2023/08/27 06:00:26;;;;;;;;;;;;;;;23.10;100.00;98628.94;4953835;29;19968;-74
2023/08/27 06:02:52;;;;;;;;;;;;;;;23.19;100.00;98643.63;4953572;29;20354;-75
2023/08/27 06:05:17;;;;;;;;;;;;;;;23.23;100.00;98650.16;4954866;28;19926;-74
2023/08/27 06:07:42;;;;;;;;;;;;;;;23.12;100.00;98642.16;4953755;29;20276;-74
2023/08/27 06:10:09;;;;;;;;;;;;;;;23.15;100.00;98642.47;4953146;28;19969;-75
2023/08/27 06:12:34;;;;;;;;;;;;;;;23.17;100.00;98634.97;4955005;29;19962;-75
2023/08/27 06:14:59;;;;;;;;;;;;;;;23.06;100.00;98637.75;4954357;28;19968;-75
2023/08/27 06:17:25;;;;;;;;;;;;;;;23.05;100.00;98631.56;4954866;29;20371;-75
2023/08/27 06:19:50;;;;;;;;;;;;;;;23.13;100.00;98633.03;4952885;29;19922;-74
2023/08/27 06:22:16;;;;;;;;;;;;;;;23.09;100.00;98646.16;4954862;28;20013;-73
2023/08/27 06:24:42;;;;;;;;;;;;;;;22.90;100.00;98644.78;4953492;29;19973;-73
2023/08/27 06:27:07;;;;;;;;;;;;;;;22.95;100.00;98650.25;4953161;29;20025;-75
2023/08/27 06:29:33;;;;;;;;;;;;;;;22.80;100.00;98655.34;4953324;29;19981;-74
2023/08/27 06:31:58;;;;;;;;;;;;;;;22.72;100.00;98659.28;4952804;29;20397;-75
2023/08/27 06:34:26;;;;;;;;;;;;;;;22.74;100.00;98656.31;4952645;29;19923;-75
2023/08/27 06:36:53;;;;;;;;;;;;;;;22.67;100.00;98656.47;4954031;29;20286;-73
2023/08/27 06:39:18;;;;;;;;;;;;;;;22.79;100.00;98651.06;4953200;29;20070;-74
2023/08/27 06:41:43;;;;;;;;;;;;;;;22.69;100.00;98658.91;4953225;29;19923;-73
2023/08/27 06:44:12;;;;;;;;;;;;;;;22.58;100.00;98662.47;4953076;29;19930;-73
2023/08/27 06:46:38;;;;;;;;;;;;;;;22.59;100.00;98666.78;4952731;29;20026;-73
2023/08/27 06:49:06;;;;;;;;;;;;;;;22.50;100.00;98676.31;4952211;29;20721;-73
2023/08/27 06:51:31;;;;;;;;;;;;;;;22.52;100.00;98690.31;4954383;29;19929;-73
2023/08/27 06:53:57;;;;;;;;;;;;;;;22.50;100.00;98692.44;4954147;28;19922;-74
2023/08/27 06:56:22;;;;;;;;;;;;;;;22.53;100.00;98697.34;4953008;29;19929;-73
2023/08/27 06:58:48;;;;;;;;;;;;;;;22.60;100.00;98704.22;4954142;29;19936;-74
2023/08/27 07:01:14;;;;;;;;;;;;;;;22.54;100.00;98704.34;4952379;29;20018;-73
2023/08/27 07:03:39;;;;;;;;;;;;;;;22.64;100.00;98694.59;4953741;28;19942;-74
2023/08/27 07:06:05;;;;;;;;;;;;;;;22.70;100.00;98692.81;4952459;29;20302;-73
2023/08/27 07:08:30;;;;;;;;;;;;;;;22.65;100.00;98704.28;4952834;29;20012;-74
2023/08/27 07:10:56;;;;;;;;;;;;;;;22.69;100.00;98702.75;4952660;29;19923;-74
2023/08/27 07:13:21;;;;;;;;;;;;;;;22.74;100.00;98699.34;4952775;29;19922;-73
2023/08/27 07:15:47;;;;;;;;;;;;;;;22.61;100.00;98707.72;4952174;29;19923;-74
2023/08/27 07:18:15;;;;;;;;;;;;;;;22.60;100.00;98714.97;4953595;28;19919;-73
2023/08/27 07:20:40;;;;;;;;;;;;;;;22.60;100.00;98706.06;4952681;28;19923;-74
2023/08/27 07:23:06;;;;;;;;;;;;;;;22.66;100.00;98715.88;4952018;29;20334;-77
2023/08/27 07:25:32;;;;;;;;;;;;;;;22.53;100.00;98713.47;4952408;29;19930;-77
2023/08/27 07:27:58;;;;;;;;;;;;;;;22.42;100.00;98732.09;4950049;28;20057;-76
2023/08/27 07:30:23;;;;;;;;;;;;;;;22.35;100.00;98719.84;4968853;28;19951;-78
2023/08/27 07:32:50;;;;;;;;;;;;;;;22.38;100.00;98728.22;4949836;28;19934;-76
2023/08/27 07:35:15;;;;;;;;;;;;;;;22.38;100.00;98744.34;4951255;29;19923;-78
2023/08/27 07:37:41;;;;;;;;;;;;;;;22.40;100.00;98744.94;4966356;28;20303;-77
2023/08/27 07:40:09;;;;;;;;;;;;;;;22.50;100.00;98746.22;4951606;29;20013;-76
2023/08/27 07:42:35;;;;;;;;;;;;;;;22.58;100.00;98748.50;4953003;29;20279;-78
2023/08/27 07:45:00;;;;;;;;;;;;;;;22.69;100.00;98755.72;4946400;29;19969;-77
2023/08/27 07:47:25;;;;;;;;;;;;;;;22.79;100.00;98753.28;4952870;28;19970;-78
2023/08/27 07:49:51;;;;;;;;;;;;;;;22.75;100.00;98762.84;4951764;28;20392;-78
2023/08/27 07:52:16;;;;;;;;;;;;;;;22.80;100.00;98768.31;4951453;29;19985;-77
2023/08/27 07:54:41;;;;;;;;;;;;;;;22.82;100.00;98774.28;4951597;29;19923;-77
2023/08/27 07:57:07;;;;;;;;;;;;;;;22.82;100.00;98785.88;4951232;29;20384;-79
2023/08/27 07:59:32;;;;;;;;;;;;;;;22.85;100.00;98795.34;4947776;28;20580;-78
2023/08/27 08:01:57;;;;;;;;;;;;;;;22.86;100.00;98805.03;4948871;29;19926;-79
2023/08/27 08:04:22;;;;;;;;;;;;;;;22.87;100.00;98820.13;4948573;29;19927;-79
2023/08/27 08:06:48;;;;;;;;;;;;;;;22.85;100.00;98824.94;4952609;29;19922;-78
2023/08/27 08:09:14;;;;;;;;;;;;;;;22.83;100.00;98830.56;4952832;28;20311;-79
2023/08/27 08:11:39;;;;;;;;;;;;;;;22.84;100.00;98831.38;4953106;29;19929;-80
2023/08/27 08:14:05;;;;;;;;;;;;;;;22.77;100.00;98833.38;4952024;29;19922;-80
2023/08/27 08:16:30;;;;;;;;;;;;;;;22.80;100.00;98830.19;4967839;28;19922;-80
2023/08/27 08:18:55;;;;;;;;;;;;;;;22.84;100.00;98839.44;4952279;29;20754;-80
2023/08/27 08:21:20;;;;;;;;;;;;;;;22.84;100.00;98851.03;4952640;29;19983;-80
2023/08/27 08:23:46;;;;;;;;;;;;;;;22.81;100.00;98850.66;4952607;29;19923;-79
2023/08/27 08:26:11;;;;;;;;;;;;;;;22.76;100.00;98854.06;4605493;28;10000668;-79
2023/08/27 08:28:37;;;;;;;;;;;;;;;22.82;100.00;98857.69;4950002;28;20322;-79
2023/08/27 08:31:03;;;;;;;;;;;;;;;22.80;100.00;98870.53;4949734;28;20303;-80
2023/08/27 08:33:28;;;;;;;;;;;;;;;22.79;100.00;98880.50;4948542;29;19927;-79
2023/08/27 08:35:53;;;;;;;;;;;;;;;22.73;100.00;98894.09;4949334;28;20371;-79
2023/08/27 08:38:19;;;;;;;;;;;;;;;22.74;100.00;98903.75;4949803;29;19930;-78
2023/08/27 08:40:45;;;;;;;;;;;;;;;22.70;100.00;98914.16;4605522;28;10000374;-80
2023/08/27 08:43:26;;;;;;;;;;;;;;;22.77;100.00;98919.44;4951797;29;19923;-80
2023/08/27 08:45:57;;;;;;;;;;;;;;;22.79;100.00;98922.72;4952700;28;20319;-79
2023/08/27 08:48:26;;;;;;;;;;;;;;;22.78;100.00;98931.84;4952794;28;19944;-78
2023/08/27 08:50:52;;;;;;;;;;;;;;;22.78;100.00;98937.22;4951519;29;19958;-79
2023/08/27 08:53:19;;;;;;;;;;;;;;;22.76;100.00;98936.63;4952346;29;20344;-78
2023/08/27 08:55:49;;;;;;;;;;;;;;;22.76;100.00;98933.94;4952143;29;19930;-78
2023/08/27 08:58:16;;;;;;;;;;;;;;;22.75;100.00;98925.06;4952295;29;20014;-78
2023/08/27 09:00:41;;;;;;;;;;;;;;;22.73;100.00;98904.84;4952427;28;19947;-78
2023/08/27 09:03:07;;;;;;;;;;;;;;;22.55;100.00;98910.34;4952182;29;19927;-78
2023/08/27 09:05:34;;;;;;;;;;;;;;;22.56;100.00;98914.66;4952017;29;20024;-79
2023/08/27 09:07:59;;;;;;;;;;;;;;;22.53;100.00;98917.81;4951772;29;19962;-77
2023/08/27 09:10:24;;;;;;;;;;;;;;;22.58;100.00;98931.34;4952240;29;19997;-78
2023/08/27 09:12:52;;;;;;;;;;;;;;;22.56;100.00;98918.13;4952064;29;19918;-78
2023/08/27 09:15:17;;;;;;;;;;;;;;;22.59;100.00;98906.09;4952039;29;19922;-77
2023/08/27 09:17:42;;;;;;;;;;;;;;;22.55;100.00;98910.34;4952481;29;20009;-76
2023/08/27 09:20:08;;;;;;;;;;;;;;;22.62;100.00;98927.16;4951880;28;19935;-79
2023/08/27 09:22:35;;;;;;;;;;;;;;;22.57;100.00;98945.84;4951866;29;19933;-78
2023/08/27 09:25:02;;;;;;;;;;;;;;;22.56;100.00;98949.63;4951831;28;19981;-79
2023/08/27 09:27:28;;;;;;;;;;;;;;;22.54;100.00;98960.59;4952428;28;19930;-80
2023/08/27 09:29:54;;;;;;;;;;;;;;;22.59;100.00;98959.88;4951539;29;19923;-79
2023/08/27 09:32:23;;;;;;;;;;;;;;;22.58;100.00;98950.19;4952535;29;19937;-78
2023/08/27 09:34:49;;;;;;;;;;;;;;;22.60;100.00;98940.00;4951373;29;20065;-78
2023/08/27 09:37:14;;;;;;;;;;;;;;;22.66;100.00;98939.91;4951518;29;20025;-80
2023/08/27 09:39:42;;;;;;;;;;;;;;;22.81;100.00;98936.72;4951993;29;19927;-80
2023/08/27 09:42:10;;;;;;;;;;;;;;;22.82;100.00;98939.19;4951047;29;20045;-80
2023/08/27 09:44:35;;;;;;;;;;;;;;;22.86;100.00;98947.59;4954210;28;19925;-80
2023/08/27 09:47:03;;;;;;;;;;;;;;;22.86;100.00;98940.34;4955469;29;20006;-82
2023/08/27 09:49:28;;;;;;;;;;;;;;;22.88;100.00;98937.44;4955344;28;20017;-82
2023/08/27 09:51:56;;;;;;;;;;;;;;;22.91;100.00;98915.44;4954840;29;20369;-81
2023/08/27 09:54:21;;;;;;;;;;;;;;;22.92;100.00;98911.69;4954967;28;19949;-81
2023/08/27 09:56:48;;;;;;;;;;;;;;;23.02;100.00;98895.75;4954994;29;20399;-81
2023/08/27 09:59:14;;;;;;;;;;;;;;;23.20;100.00;98903.66;4954876;28;19933;-80
2023/08/27 10:01:39;;;;;;;;;;;;;;;23.33;100.00;98896.34;4955270;29;19922;-81
2023/08/27 10:04:07;;;;;;;;;;;;;;;23.50;100.00;98897.25;4954403;28;19952;-81
2023/08/27 10:06:39;;;;;;;;;;;;;;;23.63;100.00;98891.53;4952602;28;19979;-79
2023/08/27 10:09:04;;;;;;;;;;;;;;;23.78;100.00;98881.03;4952009;29;19926;-80
2023/08/27 10:11:31;;;;;;;;;;;;;;;23.92;100.00;98874.22;4952514;29;19969;-79
2023/08/27 10:13:57;;;;;;;;;;;;;;;23.88;100.00;98865.00;4952291;29;20411;-79
2023/08/27 10:16:23;;;;;;;;;;;;;;;23.75;100.00;98870.72;4954219;29;20363;-78
2023/08/27 10:18:48;;;;;;;;;;;;;;;23.78;100.00;98862.16;4954785;28;19970;-76
2023/08/27 10:21:14;;;;;;;;;;;;;;;23.86;100.00;98853.66;4954684;29;19922;-76
2023/08/27 10:23:40;;;;;;;;;;;;;;;23.96;100.00;98851.16;4954476;28;20099;-77
2023/08/27 10:26:06;;;;;;;;;;;;;;;23.99;100.00;98861.41;4952931;29;19946;-78
2023/08/27 10:28:33;;;;;;;;;;;;;;;23.89;100.00;98857.75;4954609;28;19973;-78
2023/08/27 10:30:59;;;;;;;;;;;;;;;23.78;100.00;98856.78;4954268;29;19950;-75
2023/08/27 10:33:24;;;;;;;;;;;;;;;23.55;100.00;98855.06;4954503;28;19984;-77
2023/08/27 10:35:51;;;;;;;;;;;;;;;23.52;100.00;98862.78;4954066;29;20316;-77
2023/08/27 10:38:17;;;;;;;;;;;;;;;23.53;100.00;98864.44;4954673;28;19923;-77
2023/08/27 10:40:43;;;;;;;;;;;;;;;23.13;100.00;98862.59;4953983;29;19977;-78
2023/08/27 10:43:15;;;;;;;;;;;;;;;22.86;100.00;98864.22;4953859;28;20399;-78
2023/08/27 10:45:41;;;;;;;;;;;;;;;22.69;100.00;98866.78;4953128;29;19973;-79
2023/08/27 10:48:16;;;;;;;;;;;;;;;22.65;100.00;98865.66;4953722;28;19930;-79
2023/08/27 10:50:48;;;;;;;;;;;;;;;22.59;100.00;98874.66;4953013;29;20363;-79
2023/08/27 10:53:15;;;;;;;;;;;;;;;22.60;100.00;98876.31;4954229;29;19923;-79
2023/08/27 10:55:43;;;;;;;;;;;;;;;22.74;100.00;98872.31;4951660;28;19919;-78
2023/08/27 10:58:20;;;;;;;;;;;;;;;22.84;100.00;98869.03;4953567;29;19922;-79
2023/08/27 11:01:04;;;;;;;;;;;;;;;22.82;100.00;98863.06;4953904;28;19931;-79
2023/08/27 11:03:48;;;;;;;;;;;;;;;22.82;100.00;98869.25;4954166;29;20372;-77
2023/08/27 11:06:13;;;;;;;;;;;;;;;22.76;100.00;98870.22;4953904;29;19927;-79
2023/08/27 11:08:42;;;;;;;;;;;;;;;22.84;100.00;98871.72;4954129;29;19953;-78
2023/08/27 11:11:11;;;;;;;;;;;;;;;22.99;100.00;98880.09;4953548;28;19926;-79
2023/08/27 11:13:37;;;;;;;;;;;;;;;23.13;100.00;98873.38;4953703;29;19922;-79
2023/08/27 11:16:13;;;;;;;;;;;;;;;23.18;100.00;98856.50;4953555;28;20288;-79
2023/08/27 11:18:47;;;;;;;;;;;;;;;23.28;100.00;98854.81;4954262;28;19922;-77
2023/08/27 11:21:25;;;;;;;;;;;;;;;23.33;100.00;98846.00;4953480;29;19978;-76
2023/08/27 11:24:09;;;;;;;;;;;;;;;23.46;100.00;98842.19;4953770;28;20352;-80
2023/08/27 11:26:35;;;;;;;;;;;;;;;23.47;100.00;98830.38;4951625;29;19984;-76
2023/08/27 11:29:03;;;;;;;;;;;;;;;23.53;100.00;98808.69;4953168;29;20384;-75
2023/08/27 11:31:32;;;;;;;;;;;;;;;23.58;100.00;98791.78;4954099;28;19926;-76
2023/08/27 11:33:57;;;;;;;;;;;;;;;23.58;100.00;98764.88;4950292;29;20371;-74
2023/08/27 11:36:23;;;;;;;;;;;;;;;23.56;100.00;98729.31;4954252;29;19977;-80
2023/08/27 11:38:48;;;;;;;;;;;;;;;23.56;100.00;98723.91;4953268;28;20400;-76
2023/08/27 11:41:14;;;;;;;;;;;;;;;23.55;100.00;98722.28;4953410;29;20022;-76
2023/08/27 11:43:39;;;;;;;;;;;;;;;23.61;100.00;98715.91;4953735;29;19965;-75
2023/08/27 11:46:04;;;;;;;;;;;;;;;23.64;100.00;98720.78;4952993;28;19931;-76
2023/08/27 11:48:30;;;;;;;;;;;;;;;23.65;100.00;98717.03;4952669;29;19930;-78
2023/08/27 11:50:55;;;;;;;;;;;;;;;23.68;100.00;98711.97;4953478;29;19923;-80
2023/08/27 11:53:24;;;;;;;;;;;;;;;23.72;100.00;98684.53;4952511;29;19922;-78
2023/08/27 11:55:50;;;;;;;;;;;;;;;23.75;100.00;98710.97;4952844;28;20020;-77
2023/08/27 11:58:15;;;;;;;;;;;;;;;23.71;100.00;98721.44;4953758;29;20431;-76
2023/08/27 12:00:44;;;;;;;;;;;;;;;23.78;100.00;98708.63;4953436;29;19923;-75
2023/08/27 12:03:13;;;;;;;;;;;;;;;23.88;100.00;98719.53;4953318;29;19927;-79
2023/08/27 12:05:46;;;;;;;;;;;;;;;24.05;100.00;98738.34;4951350;28;19944;-80
2023/08/27 12:08:13;;;;;;;;;;;;;;;24.24;100.00;98757.75;4953222;29;20391;-78
2023/08/27 12:10:45;;;;;;;;;;;;;;;24.30;100.00;98767.53;4951440;28;19923;-78
2023/08/27 12:13:11;;;;;;;;;;;;;;;24.44;100.00;98774.19;4951118;29;19922;-77
2023/08/27 12:15:36;;;;;;;;;;;;;;;24.58;100.00;98770.03;4952382;29;19930;-77
2023/08/27 12:18:06;;;;;;;;;;;;;;;24.69;100.00;98777.19;4952924;28;19922;-77
2023/08/27 12:20:32;;;;;;;;;;;;;;;24.79;100.00;98777.31;4952951;29;19933;-76
2023/08/27 12:23:08;;;;;;;;;;;;;;;24.85;100.00;98770.91;4953304;28;19922;-77
2023/08/27 12:25:45;;;;;;;;;;;;;;;24.97;100.00;98775.34;4953201;29;19922;-77
2023/08/27 12:28:11;;;;;;;;;;;;;;;25.11;100.00;98779.25;4951104;28;19961;-78
2023/08/27 12:30:37;;;;;;;;;;;;;;;25.19;100.00;98765.31;4953030;29;19958;-78
2023/08/27 12:33:02;;;;;;;;;;;;;;;25.23;100.00;98709.72;4953425;28;20005;-76